Time;durP1;ratioP1;P1;durP2;ratioP2;P2;SDS_P1;SDS_P2;PMS_P1;PMS_P2;Temp;Humidity;BMP_temperature;BMP_pressure;BME280_temperature;BME280_humidity;BME280_pressure;Samples;Min_cycle;Max_cycle;Signal;HPM_P1;HPM_P2
2023/04/11 00:02:23;;;;;;;63.83;4.35;;;10.80;99.90;;;;;;5039184;28;20193;-87
2023/04/11 00:04:53;;;;;;;67.53;4.85;;;10.80;99.90;;;;;;5039965;28;20178;-87
2023/04/11 00:07:20;;;;;;;65.20;4.78;;;10.90;99.90;;;;;;5039225;28;20169;-88
2023/04/11 00:09:45;;;;;;;68.00;4.25;;;10.80;99.90;;;;;;5038500;28;20162;-87
2023/04/11 00:12:14;;;;;;;65.20;4.60;;;10.80;99.90;;;;;;5039400;28;20165;-87
2023/04/11 00:14:44;;;;;;;66.97;5.68;;;10.80;99.90;;;;;;5021153;28;20656;-87
2023/04/11 00:17:13;;;;;;;67.32;4.32;;;10.80;99.90;;;;;;5038292;28;20169;-87
2023/04/11 00:19:39;;;;;;;66.65;4.65;;;10.90;99.90;;;;;;5094003;22;20605;-87
2023/04/11 00:22:04;;;;;;;64.90;3.80;;;10.90;99.90;;;;;;5020114;28;20169;-86
2023/04/11 00:24:30;;;;;;;65.03;3.80;;;11.00;99.90;;;;;;5018915;28;20181;-86
2023/04/11 00:26:57;;;;;;;66.17;4.00;;;11.10;99.90;;;;;;5020723;28;20162;-86
2023/04/11 00:29:22;;;;;;;67.90;5.05;;;11.00;99.90;;;;;;5020237;28;20158;-86
2023/04/11 00:31:48;;;;;;;63.57;4.33;;;11.10;99.90;;;;;;5020588;28;20166;-86
2023/04/11 00:34:14;;;;;;;64.50;5.90;;;11.10;99.90;;;;;;5019846;28;20186;-86
2023/04/11 00:36:40;;;;;;;67.40;5.93;;;11.10;99.90;;;;;;5019546;28;20163;-86
2023/04/11 00:39:07;;;;;;;68.03;5.05;;;11.10;99.90;;;;;;5019003;28;20166;-86
2023/04/11 00:41:33;;;;;;;66.38;6.20;;;11.10;99.90;;;;;;5020325;28;20167;-86
2023/04/11 00:43:59;;;;;;;66.53;5.30;;;11.00;99.90;;;;;;5020394;28;20209;-85
2023/04/11 00:46:26;;;;;;;70.93;6.47;;;11.10;99.90;;;;;;5019239;28;20413;-86
2023/04/11 00:48:52;;;;;;;73.38;6.38;;;11.10;99.90;;;;;;5018992;28;20455;-86
2023/04/11 00:51:19;;;;;;;69.28;5.53;;;11.10;99.90;;;;;;5019982;28;20165;-86
2023/04/11 00:53:45;;;;;;;73.32;7.35;;;11.00;99.90;;;;;;5019044;28;20196;-86
2023/04/11 00:56:11;;;;;;;67.50;6.27;;;11.00;99.90;;;;;;5024628;28;20173;-86
2023/04/11 00:58:38;;;;;;;73.03;6.00;;;11.10;99.90;;;;;;5026053;28;20416;-86
2023/04/11 01:01:08;;;;;;;74.28;5.85;;;11.10;99.90;;;;;;5025888;28;20240;-86
2023/04/11 01:03:40;;;;;;;72.28;6.50;;;11.10;99.90;;;;;;5024891;28;20205;-86
2023/04/11 01:06:10;;;;;;;69.72;7.13;;;11.10;99.90;;;;;;5027239;28;20153;-85
2023/04/11 01:08:37;;;;;;;71.72;6.72;;;11.10;99.90;;;;;;5025533;28;20171;-86
2023/04/11 01:11:03;;;;;;;67.55;5.00;;;11.10;99.90;;;;;;5027875;28;20192;-86
2023/04/11 01:13:33;;;;;;;69.10;5.85;;;11.10;99.90;;;;;;5009148;28;20197;-86
2023/04/11 01:15:59;;;;;;;75.80;6.32;;;11.10;99.90;;;;;;5026027;28;20171;-86
2023/04/11 01:18:26;;;;;;;66.95;6.05;;;11.10;99.90;;;;;;5027956;28;20178;-86
2023/04/11 01:20:52;;;;;;;69.82;5.57;;;11.10;99.90;;;;;;5026972;28;20158;-86
2023/04/11 01:23:22;;;;;;;69.38;4.80;;;11.00;99.90;;;;;;5025319;28;20215;-86
2023/04/11 01:25:48;;;;;;;67.97;4.15;;;11.10;99.90;;;;;;5027351;28;20150;-86
2023/04/11 01:28:14;;;;;;;76.72;6.32;;;11.00;99.90;;;;;;5025513;28;20264;-86
2023/04/11 01:30:39;;;;;;;70.20;5.37;;;10.90;99.90;;;;;;5027477;28;20189;-86
2023/04/11 01:33:05;;;;;;;74.80;6.90;;;10.90;99.90;;;;;;5025759;28;20190;-85
2023/04/11 01:35:31;;;;;;;66.47;5.37;;;10.90;99.90;;;;;;5026279;28;20169;-86
2023/04/11 01:37:57;;;;;;;68.37;6.43;;;10.90;99.90;;;;;;5024153;28;20419;-85
2023/04/11 01:40:23;;;;;;;72.10;6.27;;;10.80;99.90;;;;;;5025947;28;20946;-85
2023/04/11 01:42:50;;;;;;;78.63;6.33;;;10.80;99.90;;;;;;5023981;28;20452;-86
2023/04/11 01:45:17;;;;;;;72.80;6.65;;;10.80;99.90;;;;;;5024048;28;20815;-85
2023/04/11 01:47:44;;;;;;;76.78;6.90;;;10.80;99.90;;;;;;5025122;28;20165;-85
2023/04/11 01:50:10;;;;;;;72.75;6.43;;;10.80;99.90;;;;;;5025508;28;20165;-85
2023/04/11 01:52:37;;;;;;;74.20;6.05;;;10.80;99.90;;;;;;5026001;28;20220;-86
2023/04/11 01:55:02;;;;;;;71.07;5.60;;;10.80;99.90;;;;;;5025057;28;20198;-85
2023/04/11 01:57:28;;;;;;;74.30;6.33;;;10.70;99.90;;;;;;5025676;28;20166;-86
2023/04/11 01:59:54;;;;;;;81.03;7.93;;;10.60;99.90;;;;;;5024989;28;20431;-85
2023/04/11 02:02:19;;;;;;;69.27;5.20;;;10.60;99.90;;;;;;5025206;28;20165;-85
2023/04/11 02:04:45;;;;;;;74.00;6.10;;;10.60;99.90;;;;;;5024837;28;20673;-86
2023/04/11 02:07:11;;;;;;;68.97;5.20;;;10.60;99.90;;;;;;5022917;28;20166;-85
2023/04/11 02:09:36;;;;;;;65.97;5.07;;;10.60;99.90;;;;;;5021827;28;20695;-85
2023/04/11 02:12:02;;;;;;;71.60;5.03;;;10.50;99.90;;;;;;5022637;28;20597;-85
2023/04/11 02:14:40;;;;;;;71.45;5.13;;;10.50;99.90;;;;;;5021802;28;20182;-85
2023/04/11 02:17:08;;;;;;;67.63;6.25;;;10.50;99.90;;;;;;5022182;28;20142;-86
2023/04/11 02:19:35;;;;;;;70.25;5.80;;;10.40;99.90;;;;;;5020773;28;20186;-86
2023/04/11 02:22:01;;;;;;;83.05;6.32;;;10.40;99.90;;;;;;5022331;28;20170;-86
2023/04/11 02:24:29;;;;;;;71.13;5.88;;;10.40;99.90;;;;;;5021864;28;20185;-86
2023/04/11 02:26:55;;;;;;;75.43;5.22;;;10.40;99.90;;;;;;5021779;28;20224;-86
2023/04/11 02:29:21;;;;;;;78.73;5.33;;;10.30;99.90;;;;;;5021570;28;20174;-86
2023/04/11 02:31:50;;;;;;;73.03;5.10;;;10.30;99.90;;;;;;5021123;28;20223;-85
2023/04/11 02:34:15;;;;;;;77.70;5.60;;;10.30;99.90;;;;;;5022256;28;20240;-85
2023/04/11 02:36:42;;;;;;;75.90;4.97;;;10.20;99.90;;;;;;5022752;28;20191;-85
2023/04/11 02:39:08;;;;;;;70.93;5.55;;;10.20;99.90;;;;;;5021217;28;20170;-86
2023/04/11 02:41:37;;;;;;;75.93;6.73;;;10.20;99.90;;;;;;5020670;28;20172;-84
2023/04/11 02:44:02;;;;;;;76.30;6.40;;;10.10;99.90;;;;;;5020870;28;20216;-85
2023/04/11 02:46:28;;;;;;;69.90;5.83;;;10.10;99.90;;;;;;5019895;28;20177;-85
2023/04/11 02:48:54;;;;;;;76.73;6.27;;;10.10;99.90;;;;;;5021201;28;20269;-85
2023/04/11 02:51:20;;;;;;;71.80;5.45;;;10.10;99.90;;;;;;5020072;28;20174;-85
2023/04/11 02:53:45;;;;;;;80.77;7.00;;;10.20;99.90;;;;;;5020147;28;20248;-85
2023/04/11 02:56:12;;;;;;;81.67;5.93;;;10.20;99.90;;;;;;5020637;28;20181;-85
2023/04/11 02:58:40;;;;;;;72.95;6.57;;;10.20;99.90;;;;;;5021120;28;20220;-85
2023/04/11 03:01:10;;;;;;;79.53;7.47;;;10.10;99.90;;;;;;5019214;28;20169;-86
2023/04/11 03:03:35;;;;;;;74.38;6.60;;;10.10;99.90;;;;;;5020873;28;20228;-85
2023/04/11 03:06:01;;;;;;;74.03;6.33;;;10.00;99.90;;;;;;5021550;28;20162;-86
2023/04/11 03:08:26;;;;;;;73.03;5.83;;;10.00;99.90;;;;;;5019541;28;20176;-85
2023/04/11 03:10:52;;;;;;;75.20;7.73;;;9.90;99.90;;;;;;5020988;28;20219;-85
2023/04/11 03:13:18;;;;;;;72.50;5.80;;;9.90;99.90;;;;;;5021308;28;20217;-85
2023/04/11 03:15:46;;;;;;;74.07;6.37;;;9.90;99.90;;;;;;5021297;28;20166;-85
2023/04/11 03:18:12;;;;;;;77.07;6.30;;;9.90;99.90;;;;;;5020150;28;20550;-85
2023/04/11 03:20:37;;;;;;;79.83;7.43;;;9.80;99.90;;;;;;5021059;28;20153;-85
2023/04/11 03:23:03;;;;;;;70.53;6.30;;;9.80;99.90;;;;;;5020574;28;20305;-85
2023/04/11 03:25:29;;;;;;;77.53;6.30;;;9.80;99.90;;;;;;5020128;28;20166;-86
2023/04/11 03:27:54;;;;;;;75.13;6.63;;;9.80;99.90;;;;;;5021215;28;20570;-85
2023/04/11 03:30:20;;;;;;;78.17;7.93;;;9.80;99.90;;;;;;5021140;28;20641;-85
2023/04/11 03:32:46;;;;;;;77.63;7.43;;;9.70;99.90;;;;;;5018700;28;20194;-85
2023/04/11 03:35:13;;;;;;;76.70;6.77;;;9.60;99.90;;;;;;5021061;28;20170;-85
2023/04/11 03:37:39;;;;;;;77.22;6.65;;;9.60;99.90;;;;;;5021177;28;20634;-85
2023/04/11 03:40:07;;;;;;;72.77;7.03;;;9.60;99.90;;;;;;5019495;28;20172;-85
2023/04/11 03:42:34;;;;;;;80.72;6.30;;;9.60;99.90;;;;;;5019957;28;20420;-85
2023/04/11 03:45:00;;;;;;;72.13;6.13;;;9.60;99.90;;;;;;5035911;28;20174;-85
2023/04/11 03:47:26;;;;;;;84.53;7.37;;;9.60;99.90;;;;;;5021008;28;20629;-85
2023/04/11 03:49:52;;;;;;;73.17;6.30;;;9.60;99.90;;;;;;5020682;28;20224;-85
2023/04/11 03:52:17;;;;;;;71.43;5.77;;;9.60;99.90;;;;;;5020410;28;20213;-85
2023/04/11 03:54:43;;;;;;;81.90;8.77;;;9.60;99.90;;;;;;5019994;28;20417;-86
2023/04/11 03:57:10;;;;;;;73.43;5.40;;;9.60;99.90;;;;;;5019971;28;20400;-85
2023/04/11 03:59:35;;;;;;;70.85;4.97;;;9.60;99.90;;;;;;5019944;28;20158;-85
2023/04/11 04:02:01;;;;;;;86.70;6.83;;;9.60;99.90;;;;;;5018741;28;20226;-85
2023/04/11 04:04:27;;;;;;;85.63;7.13;;;9.50;99.90;;;;;;5019803;28;20223;-85
2023/04/11 04:06:55;;;;;;;71.78;6.53;;;9.50;99.90;;;;;;5019712;28;20205;-85
2023/04/11 04:09:22;;;;;;;75.45;5.93;;;9.50;99.90;;;;;;5019725;28;20185;-85
2023/04/11 04:11:49;;;;;;;73.93;6.10;;;9.50;99.90;;;;;;5018952;28;20589;-85
2023/04/11 04:14:15;;;;;;;82.85;7.85;;;9.50;99.90;;;;;;5018263;28;20225;-85
2023/04/11 04:16:41;;;;;;;74.53;6.40;;;9.50;99.90;;;;;;5019736;28;20165;-85
2023/04/11 04:19:06;;;;;;;71.60;6.20;;;9.50;99.90;;;;;;5018031;28;20186;-85
2023/04/11 04:21:36;;;;;;;77.00;5.67;;;9.50;99.90;;;;;;5019357;28;20213;-85
2023/04/11 04:24:03;;;;;;;73.07;5.57;;;9.50;99.90;;;;;;5019134;28;20666;-85
2023/04/11 04:26:30;;;;;;;74.03;5.65;;;9.50;99.90;;;;;;5017452;28;20606;-85
2023/04/11 04:29:03;;;;;;;72.13;5.05;;;9.50;99.90;;;;;;5019009;28;20292;-85
2023/04/11 04:31:35;;;;;;;74.90;5.75;;;9.50;99.90;;;;;;5019085;28;20236;-85
2023/04/11 04:34:08;;;;;;;79.15;6.40;;;9.60;99.90;;;;;;5018731;28;20764;-85
2023/04/11 04:36:48;;;;;;;83.40;6.32;;;9.60;99.90;;;;;;5019447;28;20213;-85
2023/04/11 04:39:17;;;;;;;73.28;6.30;;;9.50;99.90;;;;;;5019448;28;20487;-85
2023/04/11 04:41:56;;;;;;;76.93;6.00;;;9.50;99.90;;;;;;5018588;28;20531;-85
2023/04/11 04:44:25;;;;;;;75.50;5.65;;;9.50;99.90;;;;;;5020277;28;20186;-85
2023/04/11 04:46:55;;;;;;;70.20;5.57;;;9.50;99.90;;;;;;5018468;28;20173;-85
2023/04/11 04:49:21;;;;;;;68.40;5.47;;;9.40;99.90;;;;;;5019559;28;20162;-85
2023/04/11 04:51:47;;;;;;;77.00;7.17;;;9.50;99.90;;;;;;5019087;28;20193;-85
2023/04/11 04:54:14;;;;;;;68.60;5.90;;;9.50;99.90;;;;;;5018792;28;20467;-85
2023/04/11 04:56:40;;;;;;;76.68;6.50;;;9.40;99.90;;;;;;5018815;28;20196;-85
2023/04/11 04:59:06;;;;;;;74.60;6.60;;;9.40;99.90;;;;;;5019601;28;20236;-85
2023/04/11 05:01:31;;;;;;;82.13;6.70;;;9.40;99.90;;;;;;5019752;28;20170;-85
2023/04/11 05:03:58;;;;;;;76.07;6.13;;;9.40;99.90;;;;;;5019684;28;20216;-85
2023/04/11 05:06:30;;;;;;;74.97;6.45;;;9.40;99.90;;;;;;5017300;28;20645;-85
2023/04/11 05:08:59;;;;;;;71.20;5.93;;;9.40;99.90;;;;;;5019108;28;20166;-85
2023/04/11 05:11:26;;;;;;;79.15;6.65;;;9.40;99.90;;;;;;5018013;28;20188;-85
2023/04/11 05:13:52;;;;;;;75.47;6.97;;;9.40;99.90;;;;;;5018272;28;20201;-85
2023/04/11 05:16:18;;;;;;;68.30;5.73;;;9.40;99.90;;;;;;5019378;28;20162;-85
2023/04/11 05:18:44;;;;;;;73.68;6.22;;;9.50;99.90;;;;;;5018983;28;20265;-85
2023/04/11 05:21:11;;;;;;;77.50;6.22;;;9.50;99.90;;;;;;5019704;28;20606;-85
2023/04/11 05:23:37;;;;;;;67.80;5.57;;;9.50;99.90;;;;;;5018037;28;20186;-85
2023/04/11 05:26:03;;;;;;;71.87;7.23;;;9.50;99.60;;;;;;5019097;28;20174;-85
2023/04/11 05:28:30;;;;;;;75.17;5.50;;;9.50;99.90;;;;;;5017550;28;20416;-85
2023/04/11 05:30:56;;;;;;;78.13;7.07;;;9.50;99.90;;;;;;5017450;28;20955;-85
2023/04/11 05:33:23;;;;;;;73.80;5.53;;;9.50;99.90;;;;;;5019303;28;20198;-83
2023/04/11 05:35:52;;;;;;;71.95;6.03;;;9.50;99.90;;;;;;5016205;28;20181;-84
2023/04/11 05:38:18;;;;;;;74.38;6.90;;;9.40;99.90;;;;;;5018723;28;20221;-85
2023/04/11 05:40:44;;;;;;;78.43;6.10;;;9.50;99.90;;;;;;5016965;28;20216;-84
2023/04/11 05:43:13;;;;;;;67.50;6.47;;;9.50;99.90;;;;;;5021382;28;20190;-84
2023/04/11 05:45:46;;;;;;;73.38;6.13;;;9.50;99.90;;;;;;5020697;28;20170;-84
2023/04/11 05:48:15;;;;;;;73.05;5.55;;;9.50;99.90;;;;;;5021746;28;20637;-84
2023/04/11 05:50:40;;;;;;;74.85;5.82;;;9.50;99.90;;;;;;5021938;28;20248;-84
2023/04/11 05:53:06;;;;;;;84.30;6.97;;;9.50;99.90;;;;;;5021686;28;20205;-84
2023/04/11 05:55:32;;;;;;;71.80;5.78;;;9.50;99.90;;;;;;5020845;28;20162;-84
2023/04/11 05:57:58;;;;;;;71.97;6.45;;;9.50;99.90;;;;;;5020446;28;20188;-84
2023/04/11 06:00:29;;;;;;;85.30;6.90;;;9.60;99.90;;;;;;5021212;28;20241;-84
2023/04/11 06:02:55;;;;;;;73.70;6.18;;;9.60;99.90;;;;;;5021505;28;20186;-84
2023/04/11 06:05:21;;;;;;;76.90;5.80;;;9.60;99.90;;;;;;5021181;28;20170;-84
2023/04/11 06:07:47;;;;;;;69.67;6.17;;;9.60;99.90;;;;;;5021877;28;20178;-84
2023/04/11 06:10:13;;;;;;;72.07;6.23;;;9.60;99.90;;;;;;5022355;28;20169;-84
2023/04/11 06:12:38;;;;;;;73.50;5.27;;;9.60;99.10;;;;;;5022101;28;20194;-85
2023/04/11 06:15:05;;;;;;;71.23;6.37;;;9.60;99.90;;;;;;5021148;28;20166;-85
2023/04/11 06:17:30;;;;;;;74.30;5.78;;;9.60;99.10;;;;;;5022256;28;20158;-84
2023/04/11 06:19:56;;;;;;;72.30;7.10;;;9.70;99.90;;;;;;5106481;23;20227;-86
2023/04/11 06:22:22;;;;;;;86.18;17.17;;;9.70;96.60;;;;;;5037209;28;20425;-87
2023/04/11 06:24:49;;;;;;;69.50;7.10;;;9.80;97.70;;;;;;5040065;28;20668;-87
2023/04/11 06:27:15;;;;;;;71.47;5.55;;;9.90;97.60;;;;;;5039162;28;20177;-87
2023/04/11 06:29:44;;;;;;;76.38;7.03;;;9.90;95.10;;;;;;5038933;28;20173;-87
2023/04/11 06:32:13;;;;;;;74.68;5.13;;;9.90;93.20;;;;;;5040204;28;20172;-88
2023/04/11 06:34:39;;;;;;;73.78;5.88;;;9.90;92.60;;;;;;5040354;28;20268;-86
2023/04/11 06:37:10;;;;;;;73.72;6.32;;;9.90;91.10;;;;;;5038398;28;20215;-87
2023/04/11 06:39:36;;;;;;;73.07;4.93;;;9.90;90.90;;;;;;5039204;28;20196;-87
2023/04/11 06:42:02;;;;;;;72.80;5.37;;;9.90;90.50;;;;;;5038445;28;20176;-87
2023/04/11 06:44:28;;;;;;;67.13;5.35;;;9.90;91.50;;;;;;5038602;28;20243;-87
2023/04/11 06:46:57;;;;;;;73.53;4.30;;;9.90;92.80;;;;;;5039869;28;20551;-87
2023/04/11 06:49:38;;;;;;;70.60;5.57;;;10.00;89.80;;;;;;5037891;28;20416;-86
2023/04/11 06:52:12;;;;;;;77.65;5.03;;;9.90;88.60;;;;;;5039033;28;20226;-87
2023/04/11 06:54:51;;;;;;;71.95;6.13;;;9.90;86.70;;;;;;5039779;28;20656;-87
2023/04/11 06:57:28;;;;;;;68.70;4.78;;;10.00;81.90;;;;;;5038446;28;20181;-87
2023/04/11 07:00:00;;;;;;;74.32;5.07;;;10.00;84.70;;;;;;5038761;28;20631;-87
2023/04/11 07:02:26;;;;;;;78.78;6.35;;;10.00;87.60;;;;;;5038855;28;20756;-87
2023/04/11 07:04:52;;;;;;;73.07;5.03;;;10.10;87.20;;;;;;5038784;28;20205;-87
2023/04/11 07:07:17;;;;;;;79.70;5.33;;;10.10;83.20;;;;;;5037927;28;20509;-87
2023/04/11 07:10:12;;;;;;;80.87;6.23;;;10.10;80.80;;;;;;5038106;28;20416;-87
2023/04/11 07:12:40;;;;;;;78.57;5.70;;;10.20;72.30;;;;;;5038618;28;20208;-87
2023/04/11 07:15:23;;;;;;;74.70;5.53;;;10.20;71.80;;;;;;5039282;28;20157;-87
2023/04/11 07:20:47;;;;;;;81.18;6.53;;;10.20;66.40;;;;;;5039781;28;20189;-88
2023/04/11 07:23:16;;;;;;;67.53;4.65;;;10.20;67.00;;;;;;5040107;28;20215;-87
2023/04/11 07:25:44;;;;;;;72.35;5.68;;;10.30;68.50;;;;;;5040370;28;20196;-87
2023/04/11 07:28:17;;;;;;;72.32;4.55;;;10.30;68.40;;;;;;5040965;28;20219;-87
2023/04/11 07:31:05;;;;;;;75.30;4.90;;;10.30;54.80;;;;;;5039775;28;20532;-88
2023/04/11 07:33:31;;;;;;;74.82;5.10;;;10.40;60.70;;;;;;5039837;28;20221;-88
2023/04/11 07:35:56;;;;;;;74.37;5.80;;;10.50;61.90;;;;;;5039552;28;20172;-87
2023/04/11 07:38:32;;;;;;;72.13;6.87;;;10.50;58.50;;;;;;5040236;28;20256;-87
2023/04/11 07:41:04;;;;;;;73.07;4.13;;;10.50;52.20;;;;;;5042438;28;20184;-88
2023/04/11 07:43:33;;;;;;;73.57;4.60;;;10.60;44.30;;;;;;5041181;28;20185;-86
2023/04/11 07:46:01;;;;;;;70.07;5.28;;;10.70;42.10;;;;;;5041347;28;20173;-87
2023/04/11 07:48:37;;;;;;;74.85;5.82;;;10.70;36.60;;;;;;5038236;28;20169;-86
2023/04/11 07:51:13;;;;;;;72.97;4.55;;;10.60;37.20;;;;;;5038800;28;20157;-87
2023/04/11 07:53:48;;;;;;;72.20;4.30;;;10.60;35.90;;;;;;5037834;28;20196;-86
2023/04/11 07:56:15;;;;;;;73.50;5.35;;;10.70;37.50;;;;;;5038691;28;20177;-87
2023/04/11 07:58:43;;;;;;;72.80;4.57;;;10.80;41.60;;;;;;5038000;28;20200;-87
2023/04/11 08:01:27;;;;;;;71.40;4.97;;;10.90;46.50;;;;;;5038760;28;20396;-86
2023/04/11 08:03:56;;;;;;;71.18;5.65;;;11.00;35.50;;;;;;5038944;28;20580;-86
2023/04/11 08:06:22;;;;;;;72.55;5.15;;;10.90;25.70;;;;;;5038865;28;20173;-87
2023/04/11 08:08:51;;;;;;;65.30;5.37;;;10.90;27.20;;;;;;5038465;28;20172;-87
2023/04/11 08:11:17;;;;;;;69.88;5.85;;;10.90;25.30;;;;;;5038899;28;20412;-87
2023/04/11 08:13:53;;;;;;;70.60;5.30;;;11.00;26.40;;;;;;5039943;28;20204;-87
2023/04/11 08:16:19;;;;;;;68.97;5.90;;;11.10;31.70;;;;;;5041348;28;20459;-86
2023/04/11 08:18:46;;;;;;;70.90;4.63;;;11.20;21.30;;;;;;5042999;28;20193;-87
2023/04/11 08:21:12;;;;;;;72.53;6.53;;;11.20;20.00;;;;;;5041440;28;20149;-85
2023/04/11 08:23:40;;;;;;;70.40;5.40;;;11.30;19.40;;;;;;5043258;28;20181;-87
2023/04/11 08:26:12;;;;;;;75.05;6.63;;;11.30;23.20;;;;;;5043901;28;20395;-87
2023/04/11 08:28:38;;;;;;;73.50;5.70;;;11.40;22.20;;;;;;5044592;28;20164;-87
2023/04/11 08:31:04;;;;;;;70.27;6.50;;;11.50;16.80;;;;;;5044391;28;20165;-87
2023/04/11 08:33:30;;;;;;;68.47;6.32;;;11.50;8.90;;;;;;5043705;28;20224;-86
2023/04/11 08:35:56;;;;;;;66.00;6.30;;;11.50;9.80;;;;;;5040894;28;20237;-86
2023/04/11 08:38:21;;;;;;;69.23;6.40;;;11.40;14.00;;;;;;5036497;28;20165;-85
2023/04/11 08:40:47;;;;;;;80.23;7.83;;;11.60;16.70;;;;;;5036352;28;20225;-86
2023/04/11 08:43:13;;;;;;;74.97;7.00;;;11.60;15.50;;;;;;5042116;28;20192;-86
2023/04/11 08:45:39;;;;;;;71.97;5.97;;;11.70;13.60;;;;;;5042728;28;20165;-87
2023/04/11 08:48:06;;;;;;;66.95;3.90;;;11.70;6.40;;;;;;5025092;28;20170;-86
2023/04/11 08:50:49;;;;;;;69.55;4.80;;;11.70;1.00;;;;;;5043341;28;20173;-85
2023/04/11 08:53:20;;;;;;;69.05;4.63;;;11.70;1.00;;;;;;5042262;28;20545;-86
2023/04/11 08:55:55;;;;;;;70.32;4.72;;;11.60;1.00;;;;;;5045980;28;20184;-87
2023/04/11 08:58:22;;;;;;;68.93;4.50;;;11.70;1.00;;;;;;5043447;28;20188;-86
2023/04/11 09:00:48;;;;;;;70.07;3.75;;;11.70;1.00;;;;;;5046641;28;20169;-87
2023/04/11 09:03:16;;;;;;;70.27;4.43;;;11.70;1.00;;;;;;5045035;28;20193;-86
2023/04/11 09:05:50;;;;;;;69.45;4.65;;;11.70;1.00;;;;;;5039986;28;20177;-84
2023/04/11 09:08:16;;;;;;;66.80;4.85;;;11.70;1.00;;;;;;5043053;28;20572;-86
2023/04/11 09:10:44;;;;;;;70.90;4.47;;;11.80;1.00;;;;;;5044558;28;20161;-88
2023/04/11 09:13:24;;;;;;;71.82;4.82;;;11.90;1.00;;;;;;5042847;28;20576;-85
2023/04/11 09:16:11;;;;;;;67.70;4.00;;;12.00;1.00;;;;;;5045478;28;20220;-86
2023/04/11 09:18:37;;;;;;;67.50;4.80;;;12.10;1.00;;;;;;5048538;28;20169;-85
2023/04/11 09:21:08;;;;;;;66.70;3.65;;;12.10;1.00;;;;;;5047585;28;20193;-86
2023/04/11 09:23:35;;;;;;;70.63;4.35;;;12.10;1.00;;;;;;5047081;28;20192;-86
2023/04/11 09:26:01;;;;;;;67.88;4.32;;;12.10;1.00;;;;;;5046475;28;20173;-85
2023/04/11 09:28:26;;;;;;;71.17;4.47;;;12.20;1.00;;;;;;5044788;28;20173;-86
2023/04/11 09:30:53;;;;;;;68.73;4.27;;;12.20;1.00;;;;;;5047997;28;20478;-86
2023/04/11 09:33:21;;;;;;;70.63;3.88;;;12.20;1.00;;;;;;5047951;28;20288;-86
2023/04/11 09:35:52;;;;;;;71.35;4.00;;;12.20;1.00;;;;;;5046592;28;20173;-86
2023/04/11 09:38:36;;;;;;;69.40;3.28;;;12.30;1.00;;;;;;5047468;28;20166;-86
2023/04/11 09:41:03;;;;;;;65.35;4.00;;;12.30;1.00;;;;;;5047271;28;20219;-86
2023/04/11 09:43:50;;;;;;;66.43;3.30;;;12.40;1.00;;;;;;5045749;28;20189;-86
2023/04/11 09:46:20;;;;;;;68.65;3.95;;;12.50;1.00;;;;;;5045878;28;20173;-86
2023/04/11 09:48:50;;;;;;;68.68;4.05;;;12.60;1.00;;;;;;5045763;28;20260;-87
2023/04/11 09:51:17;;;;;;;68.20;3.53;;;12.70;1.00;;;;;;5043823;28;20259;-86
2023/04/11 09:53:44;;;;;;;65.45;3.38;;;12.70;1.00;;;;;;5044785;28;20550;-86
2023/04/11 09:56:10;;;;;;;66.25;3.80;;;12.70;1.00;;;;;;5044671;28;20249;-86
2023/04/11 09:58:37;;;;;;;67.32;3.70;;;12.70;1.00;;;;;;5043397;28;20165;-86
2023/04/11 10:01:09;;;;;;;65.95;3.83;;;12.80;1.00;;;;;;5044008;28;20196;-86
2023/04/11 10:03:37;;;;;;;68.13;3.40;;;12.80;1.00;;;;;;5044566;28;20189;-87
2023/04/11 10:06:48;;;;;;;68.40;3.08;;;12.80;1.00;;;;;;5042807;28;20169;-86
2023/04/11 10:09:18;;;;;;;68.47;3.78;;;12.70;1.00;;;;;;5043082;28;20611;-87
2023/04/11 10:11:44;;;;;;;65.82;3.50;;;12.70;1.00;;;;;;5044523;28;20169;-87
2023/04/11 10:14:35;;;;;;;68.63;3.45;;;12.90;1.00;;;;;;5044071;28;20200;-87
2023/04/11 10:17:23;;;;;;;73.72;4.82;;;13.10;1.00;;;;;;5045900;28;20188;-87
2023/04/11 10:19:59;;;;;;;68.65;4.72;;;13.20;1.00;;;;;;5044198;28;20204;-87
2023/04/11 10:22:42;;;;;;;69.00;3.75;;;13.20;1.00;;;;;;5043006;28;20590;-86
2023/04/11 10:25:20;;;;;;;68.55;4.25;;;13.20;1.00;;;;;;5042999;28;20207;-87
2023/04/11 10:28:27;;;;;;;67.05;3.78;;;13.40;1.00;;;;;;5042275;28;20165;-87
2023/04/11 10:31:08;;;;;;;72.82;4.70;;;13.60;1.00;;;;;;5042920;28;20201;-87
2023/04/11 10:33:41;;;;;;;66.82;4.00;;;13.60;1.00;;;;;;5042025;28;20581;-86
2023/04/11 10:36:11;;;;;;;70.47;3.78;;;13.70;1.00;;;;;;5043641;28;20585;-87
2023/04/11 10:38:42;;;;;;;68.68;3.67;;;13.80;1.00;;;;;;5041852;28;20173;-87
2023/04/11 10:41:38;;;;;;;66.05;3.83;;;14.10;1.00;;;;;;5042799;28;20157;-87
2023/04/11 10:44:23;;;;;;;74.25;3.88;;;14.30;1.00;;;;;;5041747;28;20548;-87
2023/04/11 10:46:53;;;;;;;69.15;4.03;;;14.40;1.00;;;;;;5043253;28;20146;-87
2023/04/11 10:49:59;;;;;;;;;;;;;;;;;;;;;
2023/04/11 10:52:28;;;;;;;70.83;4.40;;;14.70;1.00;;;;;;5041750;28;20510;-87
2023/04/11 10:55:15;;;;;;;68.20;3.47;;;14.60;1.00;;;;;;5040636;28;20443;-87
2023/04/11 10:58:18;;;;;;;67.50;4.72;;;14.40;1.00;;;;;;5042530;28;20229;-88
2023/04/11 11:01:42;;;;;;;69.07;3.73;;;14.30;1.00;;;;;;5041330;28;20252;-89
2023/04/11 11:04:17;;;;;;;66.93;3.70;;;14.20;1.00;;;;;;5008908;28;20420;-88
2023/04/11 11:06:52;;;;;;;87.78;4.05;;;14.00;1.00;;;;;;5040827;28;20411;-88
2023/04/11 11:12:30;;;;;;;69.35;4.00;;;14.20;1.00;;;;;;5040402;28;20152;-88
2023/04/11 11:15:11;;;;;;;68.57;3.50;;;14.60;1.00;;;;;;5040586;28;20176;-87
2023/04/11 11:17:37;;;;;;;66.60;2.77;;;15.00;1.00;;;;;;5039487;28;20171;-87
2023/04/11 11:20:08;;;;;;;70.37;4.03;;;15.40;1.00;;;;;;5039624;28;20965;-87
2023/04/11 11:22:34;;;;;;;67.50;4.13;;;15.50;1.00;;;;;;5040114;28;20416;-87
2023/04/11 11:25:10;;;;;;;67.70;3.67;;;15.30;1.00;;;;;;5040521;28;20415;-88
2023/04/11 11:27:48;;;;;;;68.80;3.80;;;15.00;1.00;;;;;;5039688;28;20172;-87
2023/04/11 11:30:32;;;;;;;64.57;3.00;;;14.80;1.00;;;;;;5040145;28;20404;-88
2023/04/11 11:33:35;;;;;;;68.70;3.60;;;14.70;1.00;;;;;;5039559;28;20801;-88
2023/04/11 11:36:05;;;;;;;68.17;3.57;;;15.00;1.00;;;;;;5041408;28;20384;-88
2023/04/11 11:38:52;;;;;;;66.17;3.67;;;15.20;1.00;;;;;;5040722;28;20824;-86
2023/04/11 11:47:45;;;;;;;68.83;3.10;;;15.70;1.00;;;;;;5018528;28;20447;-88
2023/04/11 11:51:24;;;;;;;72.33;2.90;;;15.90;1.00;;;;;;5002555;28;20429;-87
2023/04/11 11:57:09;;;;;;;66.40;3.03;;;16.00;1.00;;;;;;5018846;28;20376;-87
2023/04/11 11:59:35;;;;;;;67.00;3.57;;;16.00;1.00;;;;;;5019111;28;20868;-87
2023/04/11 12:02:05;;;;;;;70.37;3.27;;;15.90;1.00;;;;;;5037531;28;20487;-87
2023/04/11 12:04:32;;;;;;;66.23;2.57;;;15.60;1.00;;;;;;5040519;28;20470;-87
2023/04/11 12:07:32;;;;;;;66.47;3.20;;;15.30;1.00;;;;;;5040449;28;20400;-87
2023/04/11 12:10:00;;;;;;;66.80;3.27;;;15.00;1.00;;;;;;5037358;28;20416;-87
2023/04/11 12:12:45;;;;;;;66.80;3.00;;;14.80;1.00;;;;;;5041081;28;20450;-87
2023/04/11 12:15:20;;;;;;;71.20;3.07;;;14.90;1.00;;;;;;5039683;28;20433;-87
2023/04/11 12:17:53;;;;;;;71.47;3.40;;;15.00;1.00;;;;;;5039849;28;20472;-86
2023/04/11 12:20:57;;;;;;;71.90;3.60;;;15.10;1.00;;;;;;5099998;22;20913;-79
2023/04/11 12:23:46;;;;;;;67.03;3.27;;;15.30;1.00;;;;;;5015702;28;20455;-79
2023/04/11 12:26:37;;;;;;;68.10;3.47;;;15.60;1.00;;;;;;5013262;28;20445;-79
2023/04/11 12:29:06;;;;;;;67.13;3.07;;;15.90;1.00;;;;;;5016547;28;20377;-79
2023/04/11 12:31:31;;;;;;;67.40;2.93;;;16.10;1.00;;;;;;5016727;28;20764;-79
2023/04/11 12:34:34;;;;;;;68.50;3.83;;;16.10;1.00;;;;;;5016425;28;20456;-79
2023/04/11 12:37:06;;;;;;;71.20;3.70;;;16.10;1.00;;;;;;5013046;28;20427;-80
2023/04/11 12:39:59;;;;;;;;;;;;;;;;;;;;;
2023/04/11 12:45:36;;;;;;;69.93;2.90;;;16.30;1.00;;;;;;4975381;28;20485;-80
2023/04/11 12:48:31;;;;;;;66.17;2.87;;;16.40;1.00;;;;;;4975817;28;20831;-80
2023/04/11 12:51:22;;;;;;;70.33;3.17;;;16.40;1.00;;;;;;4972923;28;20414;-80
2023/04/11 12:57:32;;;;;;;70.60;3.77;;;16.30;1.00;;;;;;4998850;28;20429;-80
2023/04/11 13:00:07;;;;;;;68.80;3.53;;;16.40;1.00;;;;;;5016179;28;20407;-79
2023/04/11 13:02:59;;;;;;;73.30;3.93;;;16.40;1.00;;;;;;5015215;28;20446;-79
2023/04/11 13:08:29;;;;;;;67.27;3.50;;;16.60;1.00;;;;;;5009271;28;20405;-80
2023/04/11 13:11:03;;;;;;;70.27;3.70;;;16.50;1.00;;;;;;5016650;28;20389;-80
2023/04/11 13:13:31;;;;;;;67.80;3.63;;;16.50;1.00;;;;;;5016331;28;20460;-79
2023/04/11 13:15:56;;;;;;;74.63;4.00;;;16.70;1.00;;;;;;5016556;28;20428;-79
2023/04/11 13:18:22;;;;;;;66.93;3.33;;;16.60;1.00;;;;;;5016699;28;20432;-80
2023/04/11 13:20:48;;;;;;;67.27;3.27;;;16.20;1.00;;;;;;5016299;28;20154;-79
2023/04/11 13:23:16;;;;;;;70.60;3.57;;;16.10;1.00;;;;;;5016133;28;20276;-79
2023/04/11 13:25:41;;;;;;;73.50;3.47;;;15.90;1.00;;;;;;5016401;28;20177;-80
2023/04/11 13:28:07;;;;;;;65.97;3.73;;;15.70;1.00;;;;;;5016661;28;20413;-79
2023/04/11 13:30:33;;;;;;;67.17;3.30;;;15.50;1.00;;;;;;5014616;28;20166;-80